Time;durP1;ratioP1;P1;durP2;ratioP2;P2;SDS_P1;SDS_P2;PMS_P1;PMS_P2;Temp;Humidity;BMP_temperature;BMP_pressure;BME280_temperature;BME280_humidity;BME280_pressure;Samples;Min_cycle;Max_cycle;Signal;HPM_P1;HPM_P2
2022/07/11 00:02:16;;;;;;;1.42;1.42;;;;;;;20.15;57.29;95030.13;5066730;27;20197;-65
2022/07/11 00:04:43;;;;;;;4.65;1.40;;;;;;;20.16;56.85;95029.19;5067972;27;20233;-65
2022/07/11 00:07:10;;;;;;;4.22;3.40;;;;;;;20.19;58.20;95028.16;5067083;27;20291;-65
2022/07/11 00:09:37;;;;;;;5.53;4.55;;;;;;;20.16;57.35;95029.19;5066953;27;20205;-66
2022/07/11 00:12:04;;;;;;;5.93;5.25;;;;;;;20.22;56.62;95026.19;5067546;27;20205;-65
2022/07/11 00:14:31;;;;;;;14.20;11.90;;;;;;;20.09;58.05;95033.16;5065251;27;20209;-65
2022/07/11 00:16:58;;;;;;;5.35;4.32;;;;;;;20.16;57.19;95026.63;5066882;27;20269;-65
2022/07/11 00:19:26;;;;;;;5.53;4.97;;;;;;;20.07;57.98;95029.84;5068762;27;20305;-64
2022/07/11 00:21:53;;;;;;;9.05;6.85;;;;;;;20.18;57.46;95032.50;5067725;27;20233;-65
2022/07/11 00:24:21;;;;;;;7.90;6.25;;;;;;;20.19;57.60;95039.31;5065155;27;20258;-63
2022/07/11 00:26:49;;;;;;;3.03;2.83;;;;;;;20.26;56.50;95037.94;5060875;27;20677;-64
2022/07/11 00:29:17;;;;;;;2.78;2.58;;;;;;;20.03;56.97;95043.94;5067846;28;20323;-65
2022/07/11 00:31:44;;;;;;;2.90;2.70;;;;;;;20.12;56.98;95043.25;5063801;27;20233;-64
2022/07/11 00:34:10;;;;;;;3.20;2.95;;;;;;;20.24;56.75;95047.56;5063169;27;20354;-65
2022/07/11 00:36:39;;;;;;;2.88;2.15;;;;;;;20.18;57.40;95053.16;5063778;27;20651;-64
2022/07/11 00:39:05;;;;;;;2.65;2.45;;;;;;;20.10;56.63;95055.44;5067223;27;20269;-64
2022/07/11 00:41:32;;;;;;;4.57;2.83;;;;;;;20.07;57.60;95055.66;5068224;27;20253;-64
2022/07/11 00:44:01;;;;;;;1.77;1.67;;;;;;;20.07;57.56;95055.66;5065383;28;20208;-65
2022/07/11 00:46:29;;;;;;;4.90;3.05;;;;;;;20.15;57.55;95058.53;5068491;27;20769;-64
2022/07/11 00:48:56;;;;;;;4.95;4.65;;;;;;;20.12;56.28;95048.41;5067018;27;20303;-65
2022/07/11 00:51:24;;;;;;;2.63;2.50;;;;;;;19.95;56.84;95052.19;5066918;27;20201;-64
2022/07/11 00:53:54;;;;;;;3.67;2.75;;;;;;;19.94;57.26;95047.97;5066666;27;20216;-64
2022/07/11 00:56:22;;;;;;;2.70;2.13;;;;;;;19.96;57.41;95053.03;5067281;28;20714;-65
2022/07/11 00:58:49;;;;;;;3.92;2.67;;;;;;;19.94;57.49;95049.72;5066802;27;20235;-63
2022/07/11 01:01:16;;;;;;;3.22;3.03;;;;;;;19.88;57.39;95060.47;5066799;27;20642;-64
2022/07/11 01:03:43;;;;;;;3.75;3.00;;;;;;;19.69;58.03;95053.19;5065838;28;20638;-64
2022/07/11 01:06:10;;;;;;;3.17;2.50;;;;;;;19.72;57.69;95054.75;5067591;27;20221;-64
2022/07/11 01:08:39;;;;;;;2.03;1.92;;;;;;;19.61;57.79;95053.72;5066217;27;20212;-66
2022/07/11 01:11:12;;;;;;;3.13;2.28;;;;;;;19.40;58.92;95060.31;5065106;27;20341;-65
2022/07/11 01:13:39;;;;;;;2.28;1.73;;;;;;;19.42;59.07;95049.91;5062849;27;20209;-64
2022/07/11 01:16:13;;;;;;;2.22;2.00;;;;;;;19.57;59.15;95054.84;5064614;27;20444;-65
2022/07/11 01:18:45;;;;;;;2.25;2.15;;;;;;;19.55;58.57;95050.75;5065759;27;20432;-66
2022/07/11 01:21:23;;;;;;;1.40;1.40;;;;;;;19.46;57.62;95049.59;5064587;27;20232;-65
2022/07/11 01:23:53;;;;;;;1.95;1.85;;;;;;;19.21;58.54;95054.78;5062412;28;20401;-65
2022/07/11 01:26:21;;;;;;;1.52;1.42;;;;;;;18.89;59.48;95060.31;5064591;27;20209;-65
2022/07/11 01:28:48;;;;;;;2.05;1.60;;;;;;;18.47;60.76;95063.91;5063863;27;20846;-65
2022/07/11 01:31:15;;;;;;;1.30;1.30;;;;;;;18.16;61.81;95057.31;5066050;27;20197;-66
2022/07/11 01:33:42;;;;;;;2.35;1.55;;;;;;;18.08;62.37;95062.09;5065268;28;20212;-65
2022/07/11 01:36:09;;;;;;;1.35;1.35;;;;;;;17.65;63.79;95051.09;5066255;28;20265;-65
2022/07/11 01:38:37;;;;;;;3.38;1.70;;;;;;;16.99;66.47;95054.22;5065397;27;20209;-64
2022/07/11 01:41:05;;;;;;;1.60;1.50;;;;;;;16.95;66.84;95051.00;5066181;27;20693;-64
2022/07/11 01:43:32;;;;;;;2.85;1.52;;;;;;;16.90;66.98;95042.72;5064614;28;20262;-65
2022/07/11 01:45:59;;;;;;;1.83;1.73;;;;;;;17.14;66.35;95048.16;5067105;28;20209;-64
2022/07/11 01:48:26;;;;;;;1.92;1.35;;;;;;;17.42;65.36;95042.19;5067772;28;20215;-65
2022/07/11 01:50:54;;;;;;;1.90;1.80;;;;;;;17.48;64.56;95049.53;5066791;28;20588;-65
2022/07/11 01:53:21;;;;;;;1.52;1.42;;;;;;;17.21;65.65;95038.34;5066000;28;20205;-65
2022/07/11 01:55:47;;;;;;;2.05;1.80;;;;;;;17.29;65.23;95051.56;5069080;27;20208;-64
2022/07/11 01:58:16;;;;;;;2.33;1.20;;;;;;;17.32;64.93;95056.53;5071841;27;20204;-65
2022/07/11 02:00:42;;;;;;;1.52;1.42;;;;;;;17.19;65.44;95053.84;5071317;27;20204;-64
2022/07/11 02:03:09;;;;;;;2.28;1.60;;;;;;;17.31;64.90;95052.31;5070608;27;20204;-65
2022/07/11 02:05:38;;;;;;;1.58;1.48;;;;;;;17.36;64.34;95057.97;5069277;27;20407;-65
2022/07/11 02:08:13;;;;;;;1.80;1.70;;;;;;;17.45;64.03;95057.44;5072179;27;20208;-66
2022/07/11 02:10:42;;;;;;;1.60;1.50;;;;;;;17.37;64.41;95064.75;5068649;27;20219;-65
2022/07/11 02:13:10;;;;;;;1.52;1.42;;;;;;;17.34;64.60;95059.81;5070274;27;20660;-65
2022/07/11 02:15:39;;;;;;;1.42;1.42;;;;;;;17.32;64.89;95070.16;5070025;27;20705;-64
2022/07/11 02:18:06;;;;;;;1.42;1.33;;;;;;;17.46;63.92;95066.78;5070392;27;20765;-65
2022/07/11 02:20:34;;;;;;;1.33;1.30;;;;;;;17.44;63.93;95073.75;5070361;27;20204;-67
2022/07/11 02:23:00;;;;;;;3.53;1.60;;;;;;;17.27;64.72;95068.81;5071656;27;20209;-64
2022/07/11 02:25:28;;;;;;;1.45;1.40;;;;;;;17.33;64.09;95073.56;5069107;27;20606;-64
2022/07/11 02:27:55;;;;;;;1.70;1.60;;;;;;;17.27;64.29;95068.81;5071301;27;20212;-64
2022/07/11 02:30:21;;;;;;;1.60;1.50;;;;;;;17.22;64.56;95078.53;5070231;27;20313;-64
2022/07/11 02:32:51;;;;;;;17.27;3.10;;;;;;;17.16;65.16;95079.72;5069922;27;20197;-65
2022/07/11 02:35:17;;;;;;;4.13;1.40;;;;;;;16.84;65.67;95083.31;5070624;27;20232;-64
2022/07/11 02:37:44;;;;;;;1.80;1.70;;;;;;;17.08;65.05;95073.38;5070558;27;20193;-64
2022/07/11 02:40:11;;;;;;;1.50;1.50;;;;;;;17.16;64.57;95077.16;5069926;27;20225;-65
2022/07/11 02:42:38;;;;;;;1.70;1.60;;;;;;;17.12;65.03;95077.41;5070137;27;20235;-64
2022/07/11 02:45:07;;;;;;;2.03;1.92;;;;;;;16.88;66.02;95083.06;5070193;27;20204;-64
2022/07/11 02:47:35;;;;;;;2.22;1.48;;;;;;;16.72;66.32;95087.44;5071512;27;20211;-65
2022/07/11 02:50:04;;;;;;;2.00;1.90;;;;;;;16.61;67.41;95092.31;5070252;27;20205;-63
2022/07/11 02:52:30;;;;;;;1.35;1.33;;;;;;;16.84;66.74;95091.84;5069700;27;20209;-64
2022/07/11 02:54:57;;;;;;;1.70;1.60;;;;;;;16.85;66.34;95083.22;5070168;27;20200;-63
2022/07/11 02:57:24;;;;;;;3.30;1.80;;;;;;;16.76;66.90;95088.91;5069504;27;20209;-64
2022/07/11 02:59:51;;;;;;;1.42;1.30;;;;;;;16.94;66.71;95080.16;5070508;27;20209;-64
2022/07/11 03:02:17;;;;;;;1.75;1.63;;;;;;;16.97;66.17;95095.38;5070342;27;20347;-62
2022/07/11 03:04:44;;;;;;;2.00;1.90;;;;;;;16.99;65.94;95096.13;5070410;27;20316;-64
2022/07/11 03:07:12;;;;;;;1.48;1.48;;;;;;;16.86;66.18;95099.47;5070570;27;20228;-64
2022/07/11 03:09:39;;;;;;;2.97;1.92;;;;;;;16.81;66.72;95096.34;5070214;27;20209;-64
2022/07/11 03:12:07;;;;;;;1.40;1.30;;;;;;;16.61;67.24;95100.00;5069041;28;20293;-64
2022/07/11 03:14:34;;;;;;;1.38;1.27;;;;;;;16.76;66.70;95101.75;5069520;27;20216;-63
2022/07/11 03:17:00;;;;;;;1.42;1.38;;;;;;;16.52;67.26;95095.41;5069475;27;20975;-63
2022/07/11 03:19:27;;;;;;;4.22;1.90;;;;;;;16.71;66.64;95101.19;5069532;27;20293;-63
2022/07/11 03:21:54;;;;;;;3.55;1.63;;;;;;;16.74;66.25;95103.56;5068374;27;20232;-63
2022/07/11 03:24:22;;;;;;;2.53;2.15;;;;;;;16.54;67.10;95103.84;5069109;28;20304;-64
2022/07/11 03:26:51;;;;;;;1.60;1.60;;;;;;;16.43;67.58;95108.72;5069125;27;20200;-64
2022/07/11 03:29:17;;;;;;;2.60;1.90;;;;;;;16.52;67.35;95113.38;5070183;27;20292;-62
2022/07/11 03:31:44;;;;;;;1.67;1.58;;;;;;;16.62;67.35;95109.34;5069321;27;20204;-63
2022/07/11 03:34:11;;;;;;;1.70;1.55;;;;;;;17.82;63.61;95111.75;5070455;27;20699;-63
2022/07/11 03:36:38;;;;;;;1.92;1.65;;;;;;;19.46;58.14;95111.44;5069669;27;20201;-64
2022/07/11 03:39:05;;;;;;;1.65;1.58;;;;;;;20.68;53.88;95108.09;5070033;27;20213;-64
2022/07/11 03:41:33;;;;;;;2.15;1.60;;;;;;;21.73;51.17;95106.22;5069026;27;20225;-65
2022/07/11 03:44:00;;;;;;;1.25;1.23;;;;;;;22.48;48.92;95107.31;5069779;27;20281;-66
2022/07/11 03:46:27;;;;;;;2.88;1.42;;;;;;;23.25;47.08;95115.75;5068739;27;20208;-64
2022/07/11 03:48:54;;;;;;;2.17;1.23;;;;;;;23.24;47.33;95120.09;5069203;27;20258;-65
2022/07/11 03:51:20;;;;;;;1.50;1.42;;;;;;;23.47;46.96;95115.59;5067613;27;20205;-64
2022/07/11 03:53:47;;;;;;;2.08;1.60;;;;;;;23.43;46.70;95119.38;5068761;27;21167;-65
2022/07/11 03:56:16;;;;;;;3.05;1.70;;;;;;;23.65;46.25;95121.88;5068717;27;20201;-66
2022/07/11 03:58:44;;;;;;;6.70;6.20;;;;;;;23.67;45.59;95116.53;5069489;27;20208;-64
2022/07/11 04:01:11;;;;;;;3.22;3.03;;;;;;;23.88;45.48;95124.28;5068864;27;20205;-64
2022/07/11 04:03:38;;;;;;;4.47;1.77;;;;;;;24.65;43.79;95124.50;5069800;27;20265;-64
2022/07/11 04:06:05;;;;;;;3.58;1.50;;;;;;;23.80;45.74;95134.47;5068434;27;20984;-64
2022/07/11 04:08:32;;;;;;;1.42;1.33;;;;;;;24.13;44.83;95134.22;5067710;27;20666;-65
2022/07/11 04:10:58;;;;;;;1.33;1.33;;;;;;;23.89;45.50;95136.31;5068651;27;20213;-64
2022/07/11 04:13:25;;;;;;;2.95;1.70;;;;;;;22.96;47.64;95144.03;5068953;27;20266;-64
2022/07/11 04:15:53;;;;;;;5.43;5.03;;;;;;;22.64;48.57;95146.59;5068670;27;20258;-64
2022/07/11 04:18:20;;;;;;;4.07;3.60;;;;;;;22.04;50.93;95145.28;5068226;27;20201;-64
2022/07/11 04:20:47;;;;;;;2.80;2.60;;;;;;;21.58;52.24;95151.34;5068630;27;20208;-63
2022/07/11 04:23:15;;;;;;;1.58;1.48;;;;;;;20.89;54.23;95153.00;5068207;27;20225;-63
2022/07/11 04:25:41;;;;;;;1.63;1.52;;;;;;;20.51;54.90;95153.19;5067905;27;20241;-63
2022/07/11 04:28:08;;;;;;;1.83;1.50;;;;;;;20.37;55.98;95149.00;5066177;27;20204;-64
2022/07/11 04:30:35;;;;;;;1.90;1.80;;;;;;;20.35;56.23;95148.25;5067475;27;20262;-63
2022/07/11 04:33:03;;;;;;;1.67;1.58;;;;;;;20.23;56.90;95151.69;5067916;27;21385;-63
2022/07/11 04:35:31;;;;;;;3.30;1.80;;;;;;;20.16;57.20;95152.22;5068309;27;20205;-64
2022/07/11 04:37:57;;;;;;;1.77;1.48;;;;;;;20.26;56.29;95146.34;5068828;27;20215;-63
2022/07/11 04:40:24;;;;;;;5.03;4.13;;;;;;;20.18;57.70;95137.47;5067491;27;20214;-63
2022/07/11 04:42:52;;;;;;;3.85;2.30;;;;;;;20.08;57.66;95149.34;5067594;28;20312;-64
2022/07/11 04:45:19;;;;;;;2.15;2.05;;;;;;;20.43;56.36;95146.91;5068204;27;20197;-64
2022/07/11 04:47:46;;;;;;;2.58;1.73;;;;;;;20.68;56.79;95154.56;5067279;28;20205;-64
2022/07/11 04:50:14;;;;;;;15.52;9.50;;;;;;;20.83;55.12;95150.88;5067955;27;20506;-64
2022/07/11 04:52:42;;;;;;;6.88;6.25;;;;;;;20.69;55.81;95151.06;5067627;27;20205;-65
2022/07/11 04:55:09;;;;;;;2.78;2.58;;;;;;;21.11;55.70;95152.25;5068463;27;20208;-64
2022/07/11 04:57:36;;;;;;;2.15;2.05;;;;;;;22.02;52.10;95147.19;5067113;27;20208;-64
2022/07/11 05:00:04;;;;;;;2.38;1.85;;;;;;;22.51;50.73;95148.53;5066923;27;20266;-64
2022/07/11 05:02:31;;;;;;;1.40;1.30;;;;;;;22.60;50.71;95147.78;5067180;27;20232;-64
2022/07/11 05:04:58;;;;;;;1.58;1.48;;;;;;;22.16;51.04;95157.28;5068412;27;20816;-64
2022/07/11 05:07:26;;;;;;;1.88;1.70;;;;;;;21.75;52.17;95152.66;5067655;27;20208;-63
2022/07/11 05:09:53;;;;;;;1.88;1.77;;;;;;;21.49;53.75;95153.81;5067331;27;20209;-64
2022/07/11 05:12:21;;;;;;;2.05;1.75;;;;;;;21.50;53.56;95148.53;5067418;27;20213;-63
2022/07/11 05:14:48;;;;;;;2.17;1.90;;;;;;;21.45;54.10;95166.16;5066510;27;20213;-63
2022/07/11 05:17:14;;;;;;;6.13;1.92;;;;;;;21.56;54.25;95160.16;5067347;27;20761;-64
2022/07/11 05:19:41;;;;;;;2.88;1.73;;;;;;;21.94;52.96;95159.84;5065944;28;20300;-64
2022/07/11 05:22:08;;;;;;;2.78;1.70;;;;;;;22.63;51.57;95163.06;5066175;28;20714;-64
2022/07/11 05:24:36;;;;;;;1.70;1.60;;;;;;;24.28;47.34;95164.06;5067562;28;20241;-64
2022/07/11 05:27:03;;;;;;;2.13;1.73;;;;;;;26.82;41.59;95154.78;5067075;27;20260;-64
2022/07/11 05:29:30;;;;;;;3.00;1.52;;;;;;;28.18;38.22;95163.84;5065932;28;20262;-64
2022/07/11 05:31:57;;;;;;;1.77;1.60;;;;;;;29.86;35.25;95151.41;5067606;27;20238;-64
2022/07/11 05:34:25;;;;;;;2.88;1.52;;;;;;;30.33;34.28;95154.88;5067523;28;20572;-64
2022/07/11 05:36:52;;;;;;;1.73;1.42;;;;;;;30.48;33.06;95162.03;5066735;28;20328;-64
2022/07/11 05:39:19;;;;;;;1.58;1.48;;;;;;;31.29;33.01;95161.59;5065325;28;20212;-66
2022/07/11 05:41:50;;;;;;;1.35;1.13;;;;;;;31.91;30.05;95171.94;5067661;27;20228;-64
2022/07/11 05:44:17;;;;;;;2.10;1.23;;;;;;;30.87;30.38;95177.78;5067487;28;20910;-65
2022/07/11 05:46:44;;;;;;;1.30;1.20;;;;;;;31.08;30.59;95176.16;5067207;28;20209;-65
2022/07/11 05:49:12;;;;;;;1.95;1.20;;;;;;;31.31;30.48;95175.38;5066694;28;20209;-64
2022/07/11 05:51:39;;;;;;;1.52;1.42;;;;;;;32.81;27.68;95183.09;5068131;28;20228;-65
2022/07/11 05:54:06;;;;;;;4.82;1.40;;;;;;;31.67;27.50;95175.63;5067269;28;20215;-65
2022/07/11 05:56:33;;;;;;;3.58;1.15;;;;;;;30.88;28.28;95184.66;5067120;28;20200;-64
2022/07/11 05:59:02;;;;;;;1.25;1.05;;;;;;;31.04;27.91;95185.38;5067081;28;20264;-65
2022/07/11 06:01:31;;;;;;;2.83;0.90;;;;;;;30.50;27.35;95191.50;5068348;28;20219;-65
2022/07/11 06:03:58;;;;;;;3.90;1.02;;;;;;;29.22;28.65;95190.50;5066986;28;20638;-65
2022/07/11 06:06:25;;;;;;;1.67;1.10;;;;;;;29.25;28.39;95178.88;5066397;28;20349;-65
2022/07/11 06:08:53;;;;;;;2.67;1.00;;;;;;;29.02;28.94;95174.28;5066104;28;20975;-64
2022/07/11 06:11:19;;;;;;;1.77;0.98;;;;;;;28.12;30.41;95172.31;5068853;28;20208;-64
2022/07/11 06:13:47;;;;;;;3.65;0.98;;;;;;;27.56;31.79;95167.50;5066753;28;20654;-65
2022/07/11 06:16:15;;;;;;;2.70;0.98;;;;;;;27.77;30.88;95165.41;5066637;28;20205;-65
2022/07/11 06:18:42;;;;;;;1.67;1.35;;;;;;;26.46;32.25;95169.56;5067700;28;20205;-63
2022/07/11 06:21:09;;;;;;;3.50;1.83;;;;;;;26.14;33.09;95168.16;5065184;28;20232;-64
2022/07/11 06:23:36;;;;;;;1.33;1.05;;;;;;;25.91;34.13;95177.31;5065198;28;20352;-63
2022/07/11 06:26:05;;;;;;;1.00;0.90;;;;;;;25.51;35.14;95180.91;5066700;28;20310;-64
2022/07/11 06:28:32;;;;;;;2.58;1.25;;;;;;;25.51;33.59;95182.69;5066683;28;20204;-64
2022/07/11 06:30:59;;;;;;;2.92;0.90;;;;;;;24.87;34.34;95186.66;5066677;28;20212;-65
2022/07/11 06:33:27;;;;;;;2.17;1.10;;;;;;;24.41;34.89;95192.44;5067121;28;20755;-64
2022/07/11 06:35:54;;;;;;;2.88;1.45;;;;;;;23.99;36.28;95184.72;5066344;28;20205;-65
2022/07/11 06:38:21;;;;;;;4.85;2.20;;;;;;;24.92;35.58;95183.66;5066934;28;21600;-65
2022/07/11 06:40:48;;;;;;;4.10;1.70;;;;;;;24.95;34.57;95180.81;5067319;27;20317;-64
2022/07/11 06:43:15;;;;;;;1.05;1.05;;;;;;;24.55;36.51;95186.84;5070192;27;20233;-64
2022/07/11 06:45:42;;;;;;;4.30;2.17;;;;;;;25.11;36.08;95177.66;5071189;28;20205;-63
2022/07/11 06:48:08;;;;;;;2.35;1.45;;;;;;;24.91;37.91;95177.63;5069935;27;20271;-63
2022/07/11 06:50:37;;;;;;;1.70;1.20;;;;;;;24.78;35.37;95182.25;5069901;27;20193;-65
2022/07/11 06:53:04;;;;;;;2.00;1.90;;;;;;;24.40;35.49;95183.81;5070915;27;20282;-65
2022/07/11 06:55:31;;;;;;;8.52;4.57;;;;;;;24.22;35.65;95190.56;5070287;27;20286;-64
2022/07/11 06:57:58;;;;;;;4.82;1.48;;;;;;;23.84;36.51;95182.59;5071280;27;20213;-64
2022/07/11 07:00:27;;;;;;;8.48;3.42;;;;;;;23.62;36.05;95183.56;5069186;27;20291;-65
2022/07/11 07:02:54;;;;;;;2.58;1.63;;;;;;;23.17;37.34;95169.97;5069382;27;20233;-66
2022/07/11 07:05:22;;;;;;;5.85;2.05;;;;;;;23.00;37.41;95192.91;5071270;27;20346;-65
2022/07/11 07:07:50;;;;;;;5.40;2.75;;;;;;;22.67;38.44;95177.44;5069993;27;20215;-65
2022/07/11 07:10:17;;;;;;;4.55;1.60;;;;;;;22.74;40.39;95184.59;5068822;27;20205;-65
2022/07/11 07:12:45;;;;;;;3.38;2.63;;;;;;;23.03;39.43;95182.28;5069553;28;20203;-65
2022/07/11 07:15:11;;;;;;;2.45;1.40;;;;;;;23.06;39.01;95183.81;5070266;27;20209;-65
2022/07/11 07:17:38;;;;;;;3.53;2.47;;;;;;;23.01;38.99;95176.41;5071145;27;20201;-65
2022/07/11 07:20:08;;;;;;;6.57;2.88;;;;;;;22.84;39.08;95182.13;5069379;27;20211;-66
2022/07/11 07:22:35;;;;;;;3.20;2.90;;;;;;;22.70;39.53;95157.28;5053217;27;20627;-65
2022/07/11 07:25:03;;;;;;;7.47;4.68;;;;;;;22.55;40.52;95170.63;5069257;27;20241;-65
2022/07/11 07:27:31;;;;;;;3.10;2.85;;;;;;;22.44;39.84;95173.25;5070176;27;20266;-63
2022/07/11 07:29:58;;;;;;;6.47;2.53;;;;;;;22.40;38.96;95170.06;5069002;27;20213;-66
2022/07/11 07:32:25;;;;;;;7.80;4.75;;;;;;;22.39;38.52;95179.59;5067954;27;21054;-64
2022/07/11 07:34:51;;;;;;;5.97;3.53;;;;;;;22.50;39.25;95180.53;5069552;27;20205;-64
2022/07/11 07:37:18;;;;;;;6.30;4.05;;;;;;;22.15;39.86;95176.34;5069363;27;20282;-64
2022/07/11 07:39:45;;;;;;;4.20;2.45;;;;;;;21.94;39.96;95183.13;5068687;27;20698;-64
2022/07/11 07:42:13;;;;;;;7.43;5.57;;;;;;;22.05;39.52;95175.38;5069505;27;20269;-64
2022/07/11 07:44:40;;;;;;;11.93;5.30;;;;;;;22.28;40.02;95178.78;5070193;27;20647;-65
2022/07/11 07:47:07;;;;;;;11.20;2.83;;;;;;;22.16;40.22;95192.69;5069692;27;20209;-64
2022/07/11 07:49:33;;;;;;;5.50;3.00;;;;;;;22.53;39.39;95188.88;5068811;27;20209;-65
2022/07/11 07:52:00;;;;;;;1.50;1.40;;;;;;;22.46;38.96;95179.13;5069430;27;20281;-65
2022/07/11 07:54:27;;;;;;;10.18;4.93;;;;;;;22.40;39.28;95178.66;5070276;27;20201;-64
2022/07/11 07:56:54;;;;;;;3.88;3.50;;;;;;;22.48;41.86;95185.03;5071049;27;20197;-65
2022/07/11 07:59:24;;;;;;;2.95;1.45;;;;;;;22.51;39.72;95182.19;5069961;27;20197;-65
2022/07/11 08:01:50;;;;;;;7.00;3.08;;;;;;;22.45;39.55;95198.19;5068670;27;21541;-65
2022/07/11 08:04:17;;;;;;;5.63;3.35;;;;;;;22.34;39.19;95183.50;5067978;27;20734;-65
2022/07/11 08:06:44;;;;;;;2.58;2.38;;;;;;;22.19;39.92;95190.69;5069217;27;20209;-66
2022/07/11 08:09:12;;;;;;;5.35;3.80;;;;;;;22.33;39.66;95190.44;5067963;28;21870;-64
2022/07/11 08:11:39;;;;;;;2.78;2.38;;;;;;;22.14;39.56;95187.63;5069191;27;20292;-64
2022/07/11 08:14:07;;;;;;;2.95;2.35;;;;;;;22.06;39.76;95188.22;5069632;27;20225;-65
2022/07/11 08:16:35;;;;;;;5.93;3.33;;;;;;;22.23;40.43;95199.88;5069059;27;20205;-64
2022/07/11 08:19:04;;;;;;;5.47;3.15;;;;;;;22.37;39.85;95191.84;5069929;27;20232;-65
2022/07/11 08:21:32;;;;;;;3.60;2.20;;;;;;;22.34;39.12;95192.09;5068030;27;20203;-65
2022/07/11 08:23:58;;;;;;;3.72;2.38;;;;;;;22.34;39.65;95194.66;5062538;27;20707;-65
2022/07/11 08:26:25;;;;;;;6.72;2.83;;;;;;;22.30;39.06;95188.06;5057649;27;20209;-64
2022/07/11 08:28:52;;;;;;;2.92;2.58;;;;;;;22.34;38.59;95186.06;5068515;28;20212;-65
2022/07/11 08:31:19;;;;;;;3.20;2.30;;;;;;;22.03;38.64;95191.03;5068430;27;20708;-64
2022/07/11 08:33:47;;;;;;;3.38;1.30;;;;;;;22.03;38.56;95174.69;5069284;27;20201;-64
2022/07/11 08:36:14;;;;;;;1.20;0.93;;;;;;;21.94;39.11;95188.31;5067906;27;20212;-64
2022/07/11 08:38:43;;;;;;;4.53;2.15;;;;;;;21.98;38.78;95177.63;5068533;27;20277;-64
2022/07/11 08:41:12;;;;;;;3.92;1.35;;;;;;;21.93;38.60;95181.47;5066836;27;20663;-64
2022/07/11 08:43:39;;;;;;;4.30;1.70;;;;;;;21.91;38.62;95167.84;5068236;27;20221;-65
2022/07/11 08:46:07;;;;;;;3.08;2.47;;;;;;;21.78;38.98;95174.91;5068098;27;20660;-65
2022/07/11 08:48:34;;;;;;;4.97;1.85;;;;;;;21.68;39.15;95183.34;5067938;28;20205;-66
2022/07/11 08:51:03;;;;;;;20.92;13.98;;;;;;;21.57;38.40;95169.56;5067124;27;20198;-64
2022/07/11 08:53:33;;;;;;;2.63;2.42;;;;;;;21.46;36.95;95172.97;5067876;27;20205;-65
2022/07/11 08:56:01;;;;;;;4.28;1.80;;;;;;;21.57;37.19;95183.31;5068981;27;20670;-64
2022/07/11 08:58:28;;;;;;;1.88;1.73;;;;;;;21.55;37.16;95187.78;5067279;28;20754;-64
2022/07/11 09:00:56;;;;;;;4.22;2.58;;;;;;;21.62;37.56;95190.72;5068222;27;20687;-64
2022/07/11 09:03:23;;;;;;;5.05;2.22;;;;;;;21.78;37.71;95187.84;5066723;27;20284;-64
2022/07/11 09:05:50;;;;;;;7.63;3.17;;;;;;;21.88;37.90;95183.59;5067157;27;20263;-63
2022/07/11 09:08:19;;;;;;;2.80;2.55;;;;;;;21.93;38.42;95186.66;5067763;27;20296;-64
2022/07/11 09:10:47;;;;;;;3.28;1.88;;;;;;;21.94;36.99;95175.38;5067118;27;20209;-64
2022/07/11 09:13:15;;;;;;;3.67;2.78;;;;;;;22.02;37.61;95196.34;5068748;27;20636;-64
2022/07/11 09:15:44;;;;;;;2.47;1.58;;;;;;;21.95;37.83;95197.72;5068416;27;20667;-65
2022/07/11 09:18:33;;;;;;;4.35;1.33;;;;;;;22.12;36.66;95197.28;5067476;28;20208;-64
2022/07/11 09:26:34;;;;;;;2.15;1.23;;;;;;;21.86;36.20;95191.47;5065800;28;20815;-65
2022/07/11 09:29:06;;;;;;;3.80;1.00;;;;;;;21.62;36.08;95204.50;5067395;27;20212;-64
2022/07/11 09:31:34;;;;;;;1.80;1.70;;;;;;;21.71;37.03;95203.81;5066110;28;20258;-63
2022/07/11 09:34:04;;;;;;;2.08;1.00;;;;;;;21.67;37.09;95193.81;5067025;28;20232;-65
2022/07/11 09:36:42;;;;;;;1.35;1.25;;;;;;;21.69;36.07;95205.69;5068067;27;20212;-66
2022/07/11 09:39:13;;;;;;;1.13;1.13;;;;;;;21.53;36.58;95200.00;5066842;27;20197;-65
2022/07/11 09:41:40;;;;;;;2.00;1.90;;;;;;;21.54;37.37;95206.81;5066500;28;20237;-65
2022/07/11 09:44:12;;;;;;;1.15;1.00;;;;;;;21.56;36.98;95207.53;5065735;28;20225;-66
2022/07/11 09:46:39;;;;;;;4.55;1.95;;;;;;;21.66;35.99;95216.25;5067789;28;20201;-65
2022/07/11 09:49:07;;;;;;;1.70;1.60;;;;;;;21.93;36.97;95203.00;5067232;28;20998;-65
2022/07/11 09:51:34;;;;;;;3.58;1.80;;;;;;;22.00;35.10;95193.03;5065968;28;20205;-65
2022/07/11 09:54:04;;;;;;;1.20;1.17;;;;;;;21.99;36.50;95199.13;5067582;28;20208;-65
2022/07/11 09:56:39;;;;;;;1.10;1.08;;;;;;;22.05;35.95;95201.25;5067419;28;20197;-65
2022/07/11 09:59:07;;;;;;;1.48;1.40;;;;;;;22.17;36.94;95212.47;5067317;28;20215;-64
2022/07/11 10:01:34;;;;;;;11.38;9.00;;;;;;;22.25;37.91;95200.59;5066577;28;20201;-64
2022/07/11 10:04:01;;;;;;;36.20;24.98;;;;;;;22.35;38.29;95204.09;5067133;28;20586;-64
2022/07/11 10:06:28;;;;;;;8.40;4.88;;;;;;;22.43;37.72;95205.25;5066533;28;20225;-64
2022/07/11 10:08:55;;;;;;;6.95;6.25;;;;;;;22.46;37.08;95205.84;5066931;28;20209;-64
2022/07/11 10:11:22;;;;;;;6.40;5.00;;;;;;;22.45;36.66;95206.78;5066825;28;20257;-64
2022/07/11 10:13:51;;;;;;;3.22;2.63;;;;;;;22.30;36.33;95211.38;5066393;28;20590;-63
2022/07/11 10:16:25;;;;;;;7.00;4.28;;;;;;;22.35;36.80;95211.84;5070291;28;20288;-68
2022/07/11 10:19:04;;;;;;;3.95;2.25;;;;;;;22.17;36.66;95210.69;5071184;27;20294;-69
2022/07/11 10:21:40;;;;;;;2.85;2.40;;;;;;;22.28;37.36;95208.09;5069986;28;20223;-68
2022/07/11 10:24:25;;;;;;;1.40;1.30;;;;;;;22.32;37.03;95209.50;5069468;27;20301;-69
2022/07/11 10:27:00;;;;;;;3.10;2.90;;;;;;;22.49;37.39;95204.78;5069853;27;20207;-69
2022/07/11 10:29:33;;;;;;;4.80;1.70;;;;;;;22.67;36.50;95209.34;5069714;27;20261;-70
2022/07/11 10:32:08;;;;;;;4.75;2.85;;;;;;;22.68;36.41;95192.84;5070232;27;20662;-69
2022/07/11 10:34:35;;;;;;;3.60;1.98;;;;;;;22.25;36.65;95200.59;5071065;27;20254;-69
2022/07/11 10:37:04;;;;;;;1.80;1.70;;;;;;;22.19;37.26;95203.63;5070003;27;20651;-70
2022/07/11 10:39:32;;;;;;;2.67;1.83;;;;;;;22.17;37.40;95196.94;5071266;27;20694;-69
2022/07/11 10:42:00;;;;;;;1.63;1.48;;;;;;;22.31;37.80;95213.03;5070034;27;20628;-69
2022/07/11 10:44:47;;;;;;;1.40;1.30;;;;;;;22.26;36.68;95222.94;5070626;27;20714;-69
2022/07/11 10:47:33;;;;;;;1.33;1.33;;;;;;;22.01;37.36;95213.66;5066998;27;20225;-69
2022/07/11 10:50:03;;;;;;;4.35;2.97;;;;;;;22.07;36.99;95199.38;5068321;27;20205;-69
2022/07/11 10:52:33;;;;;;;2.40;2.20;;;;;;;22.08;37.56;95210.56;5069152;27;20688;-68
2022/07/11 10:55:08;;;;;;;4.50;2.28;;;;;;;21.92;38.28;95201.38;5070442;27;21291;-68
2022/07/11 10:57:46;;;;;;;3.72;2.65;;;;;;;21.87;38.21;95210.41;5070631;27;20273;-68
2022/07/11 11:00:14;;;;;;;2.72;2.00;;;;;;;22.00;38.33;95213.72;5054221;27;20258;-67
2022/07/11 11:03:06;;;;;;;1.83;1.65;;;;;;;22.14;37.98;95216.09;5069030;27;21111;-70
2022/07/11 11:05:48;;;;;;;2.60;2.40;;;;;;;22.29;37.40;95203.72;5069396;27;20251;-70
2022/07/11 11:08:42;;;;;;;2.75;2.33;;;;;;;22.00;38.13;95213.72;5071268;27;20265;-69
2022/07/11 11:11:37;;;;;;;3.53;1.60;;;;;;;21.92;38.23;95211.72;5069419;27;20205;-70
2022/07/11 11:14:21;;;;;;;7.82;4.38;;;;;;;22.30;38.60;95218.31;5069285;27;20208;-69
2022/07/11 11:16:50;;;;;;;1.52;1.42;;;;;;;22.71;37.35;95209.94;5069873;27;20718;-68
2022/07/11 11:19:51;;;;;;;2.80;2.22;;;;;;;22.87;35.90;95204.38;5070052;27;20655;-69
2022/07/11 11:22:20;;;;;;;1.70;1.60;;;;;;;22.78;36.31;95224.06;5069790;27;20220;-69
2022/07/11 11:24:48;;;;;;;2.85;1.70;;;;;;;22.86;36.21;95213.91;5070500;27;20248;-69
2022/07/11 11:27:20;;;;;;;3.33;2.13;;;;;;;22.94;35.63;95210.72;5068417;27;20277;-69
2022/07/11 11:29:52;;;;;;;2.33;2.13;;;;;;;22.93;36.52;95204.72;5069824;27;20362;-68
2022/07/11 11:32:21;;;;;;;7.90;3.13;;;;;;;22.79;35.15;95204.97;5068727;27;20228;-68
2022/07/11 11:34:48;;;;;;;2.75;1.92;;;;;;;22.47;35.74;95214.44;5069107;27;20763;-69
2022/07/11 11:37:17;;;;;;;6.43;2.08;;;;;;;22.56;35.59;95211.13;5070202;27;20208;-69
2022/07/11 11:39:45;;;;;;;4.10;1.73;;;;;;;22.49;36.46;95220.34;5068699;27;20295;-69
2022/07/11 11:42:16;;;;;;;3.83;1.77;;;;;;;22.36;36.25;95210.09;5068748;27;20250;-68
2022/07/11 11:44:56;;;;;;;1.77;1.67;;;;;;;22.39;36.82;95215.84;5069303;27;20318;-67
2022/07/11 11:47:25;;;;;;;4.93;1.42;;;;;;;22.46;36.99;95220.56;5068684;27;20866;-68